Time;durP1;ratioP1;P1;durP2;ratioP2;P2;SDS_P1;SDS_P2;PMS_P1;PMS_P2;Temp;Humidity;BMP_temperature;BMP_pressure;BME280_temperature;BME280_humidity;BME280_pressure;Samples;Min_cycle;Max_cycle;Signal;HPM_P1;HPM_P2
2023/10/27 00:01:31;;;;;;;93.47;27.42;;;;;;;11.14;100.00;98923.25;4953150;28;20119;-88
2023/10/27 00:03:57;;;;;;;96.88;26.95;;;;;;;11.22;100.00;98936.09;4920970;29;20118;-87
2023/10/27 00:06:22;;;;;;;83.97;23.70;;;;;;;11.19;100.00;98926.31;4921428;29;20058;-88
2023/10/27 00:08:49;;;;;;;104.22;26.88;;;;;;;11.20;100.00;98928.03;4920279;29;20483;-87
2023/10/27 00:11:16;;;;;;;104.70;26.27;;;;;;;11.19;100.00;98923.56;4920428;29;20074;-87
2023/10/27 00:13:41;;;;;;;99.93;25.85;;;;;;;11.18;100.00;98927.38;4935110;29;20082;-88
2023/10/27 00:16:11;;;;;;;96.38;25.38;;;;;;;11.20;100.00;98936.25;4930338;29;20020;-88
2023/10/27 00:18:41;;;;;;;102.57;26.85;;;;;;;11.18;100.00;98924.63;4953906;29;20031;-86
2023/10/27 00:21:07;;;;;;;117.70;25.45;;;;;;;11.14;100.00;98916.94;4934091;29;20067;-87
2023/10/27 00:23:33;;;;;;;101.13;26.60;;;;;;;11.14;100.00;98915.03;4919471;29;20082;-87
2023/10/27 00:25:58;;;;;;;123.90;27.88;;;;;;;11.13;100.00;98926.16;4936343;29;20047;-87
2023/10/27 00:28:28;;;;;;;122.32;27.30;;;;;;;11.20;100.00;98918.97;4935200;29;20039;-87
2023/10/27 00:30:53;;;;;;;126.10;26.30;;;;;;;11.18;100.00;98919.16;4972415;29;20050;-94
2023/10/27 00:33:19;;;;;;;102.85;25.25;;;;;;;11.27;100.00;98914.50;4967057;28;20031;-95
2023/10/27 00:35:44;;;;;;;87.38;26.10;;;;;;;11.27;100.00;98910.91;4938999;29;20385;-95
2023/10/27 00:38:10;;;;;;;105.35;25.38;;;;;;;11.27;100.00;98906.28;4927555;28;20038;-94
2023/10/27 00:40:35;;;;;;;81.20;24.08;;;;;;;11.20;100.00;98900.66;4935154;28;20082;-93
2023/10/27 00:43:06;;;;;;;92.68;24.30;;;;;;;11.26;100.00;98904.56;4943051;28;20034;-94
2023/10/27 00:45:33;;;;;;;82.28;25.27;;;;;;;11.31;100.00;98904.88;4938719;28;20031;-95
2023/10/27 00:48:00;;;;;;;98.72;26.42;;;;;;;11.37;100.00;98901.47;4938818;28;20063;-94
2023/10/27 00:50:26;;;;;;;82.65;25.15;;;;;;;11.32;100.00;98895.66;4936086;28;20031;-94
2023/10/27 00:52:53;;;;;;;113.90;27.10;;;;;;;11.30;100.00;98902.34;4928530;28;20037;-93
2023/10/27 00:55:20;;;;;;;107.82;27.02;;;;;;;11.26;100.00;98893.59;4957223;28;20026;-94
2023/10/27 00:57:48;;;;;;;90.68;26.88;;;;;;;11.34;100.00;98901.81;4958066;28;20031;-94
2023/10/27 01:00:15;;;;;;;82.20;26.27;;;;;;;11.17;100.00;98898.25;4974889;28;20031;-94
2023/10/27 01:02:41;;;;;;;88.15;25.92;;;;;;;11.24;100.00;98903.03;4958209;28;20124;-93
2023/10/27 01:05:08;;;;;;;84.45;25.92;;;;;;;11.34;100.00;98900.97;4941167;28;20031;-94
2023/10/27 01:07:35;;;;;;;97.93;25.30;;;;;;;11.26;100.00;98896.34;4931472;28;20156;-94
2023/10/27 01:10:01;;;;;;;87.03;26.83;;;;;;;11.27;100.00;98895.31;4975105;28;20030;-94
2023/10/27 01:12:31;;;;;;;102.55;26.83;;;;;;;11.25;100.00;98907.47;4957456;28;20036;-94
2023/10/27 01:14:57;;;;;;;84.97;25.35;;;;;;;11.14;100.00;98898.59;4940328;28;20404;-94
2023/10/27 01:17:22;;;;;;;89.18;26.08;;;;;;;11.25;100.00;98896.50;4953202;28;20034;-95
2023/10/27 01:19:47;;;;;;;89.25;26.35;;;;;;;11.12;100.00;98895.19;4918490;28;20035;-94
2023/10/27 01:22:15;;;;;;;92.05;27.55;;;;;;;11.17;100.00;98895.50;4936652;28;20027;-93
2023/10/27 01:24:41;;;;;;;86.05;26.67;;;;;;;11.15;100.00;98893.97;4926822;28;20065;-93
2023/10/27 01:27:08;;;;;;;88.97;26.48;;;;;;;11.20;100.00;98891.59;4932334;28;20030;-94
2023/10/27 01:29:34;;;;;;;89.90;26.95;;;;;;;11.07;100.00;98896.72;4929151;28;20031;-94
2023/10/27 01:32:00;;;;;;;85.65;27.10;;;;;;;11.07;100.00;98891.25;4974539;28;20026;-94
2023/10/27 01:34:25;;;;;;;78.03;26.00;;;;;;;11.09;100.00;98887.31;4926803;28;21723;-94
2023/10/27 01:36:51;;;;;;;89.80;27.10;;;;;;;11.08;100.00;98885.59;4941770;28;20034;-94
2023/10/27 01:39:17;;;;;;;98.28;27.73;;;;;;;11.16;100.00;98882.84;4973345;28;20101;-87
2023/10/27 01:41:42;;;;;;;99.55;26.60;;;;;;;11.10;100.00;98882.69;4937677;28;20030;-87
2023/10/27 01:44:08;;;;;;;80.57;27.83;;;;;;;11.15;100.00;98883.00;4952256;28;20037;-87
2023/10/27 01:46:34;;;;;;;81.78;24.52;;;;;;;11.10;100.00;98875.34;4952652;28;20100;-86
2023/10/27 01:49:01;;;;;;;108.63;27.00;;;;;;;11.06;100.00;98873.97;4952975;28;20168;-87
2023/10/27 01:51:27;;;;;;;81.32;25.27;;;;;;;11.03;100.00;98880.66;4951407;28;20046;-87
2023/10/27 01:53:53;;;;;;;79.18;23.55;;;;;;;11.04;100.00;98876.88;4915132;28;20027;-87
2023/10/27 01:56:18;;;;;;;101.15;24.25;;;;;;;11.01;100.00;98879.09;4925372;28;20037;-86
2023/10/27 01:58:48;;;;;;;68.65;23.38;;;;;;;10.93;100.00;98871.75;4921632;28;21740;-88
2023/10/27 02:01:14;;;;;;;71.72;22.15;;;;;;;10.99;100.00;98868.31;4935691;28;20050;-86
2023/10/27 02:03:40;;;;;;;83.20;23.35;;;;;;;11.03;100.00;98864.22;4938129;28;20045;-88
2023/10/27 02:06:06;;;;;;;67.18;23.73;;;;;;;11.06;100.00;98873.97;4937348;28;20034;-87
2023/10/27 02:08:35;;;;;;;75.40;23.20;;;;;;;11.10;100.00;98868.97;4938658;28;20370;-88
2023/10/27 02:11:01;;;;;;;84.38;24.05;;;;;;;11.03;100.00;98863.34;4939610;28;20026;-87
2023/10/27 02:13:27;;;;;;;68.00;22.80;;;;;;;11.02;100.00;98867.13;4952577;28;20041;-87
2023/10/27 02:15:53;;;;;;;76.68;21.75;;;;;;;10.97;100.00;98859.44;4937437;28;20031;-87
2023/10/27 02:18:18;;;;;;;70.82;21.42;;;;;;;10.98;100.00;98858.38;4937933;28;20118;-87
2023/10/27 02:20:47;;;;;;;69.03;20.83;;;;;;;10.95;100.00;98860.63;4935067;28;20031;-88
2023/10/27 02:23:14;;;;;;;72.38;21.30;;;;;;;10.99;100.00;98857.38;4954740;28;20501;-88
2023/10/27 02:25:41;;;;;;;66.25;20.92;;;;;;;10.97;100.00;98855.81;4953310;28;20049;-88
2023/10/27 02:28:07;;;;;;;88.50;21.58;;;;;;;11.01;100.00;98848.97;4970078;28;20105;-88
2023/10/27 02:30:32;;;;;;;63.60;20.70;;;;;;;10.96;100.00;98851.41;4941443;28;20030;-88
2023/10/27 02:32:58;;;;;;;68.68;21.27;;;;;;;10.92;100.00;98848.16;4954190;28;20386;-88
2023/10/27 02:35:25;;;;;;;77.05;21.83;;;;;;;10.91;100.00;98838.22;4969330;28;20047;-87
2023/10/27 02:37:51;;;;;;;66.38;20.58;;;;;;;10.98;100.00;98850.19;4936992;28;20083;-87
2023/10/27 02:40:17;;;;;;;73.85;21.02;;;;;;;10.91;100.00;98845.59;4952201;28;20055;-88
2023/10/27 02:42:44;;;;;;;76.97;22.00;;;;;;;10.97;100.00;98843.00;4935587;28;20508;-87
2023/10/27 02:45:11;;;;;;;71.00;21.40;;;;;;;10.96;100.00;98849.50;4951665;28;20066;-87
2023/10/27 02:47:36;;;;;;;72.65;20.23;;;;;;;10.90;100.00;98839.25;4951574;28;20031;-86
2023/10/27 02:50:04;;;;;;;64.50;18.88;;;;;;;10.90;100.00;98847.44;4951511;28;20206;-96
2023/10/27 02:52:29;;;;;;;65.68;19.27;;;;;;;10.76;100.00;98835.34;4940066;28;20037;-96
2023/10/27 02:54:55;;;;;;;65.22;19.83;;;;;;;10.76;100.00;98834.50;4929121;28;20039;-95
2023/10/27 02:57:21;;;;;;;81.22;19.30;;;;;;;10.91;100.00;98834.63;4941374;28;20031;-96
2023/10/27 02:59:46;;;;;;;73.97;18.95;;;;;;;10.91;100.00;98831.91;4941198;28;20052;-95
2023/10/27 03:02:12;;;;;;;49.72;16.45;;;;;;;10.83;100.00;98830.88;4955489;28;20122;-94
2023/10/27 03:04:37;;;;;;;64.38;18.83;;;;;;;10.88;100.00;98829.50;4940536;28;20050;-95
2023/10/27 03:07:05;;;;;;;74.95;18.40;;;;;;;10.90;100.00;98828.28;4922708;28;20058;-95
2023/10/27 03:09:30;;;;;;;59.58;17.17;;;;;;;10.79;100.00;98821.31;4941956;28;20031;-95
2023/10/27 03:11:55;;;;;;;65.82;18.40;;;;;;;10.87;100.00;98830.53;4931865;28;20037;-94
2023/10/27 03:14:22;;;;;;;64.97;17.35;;;;;;;10.78;100.00;98822.31;4960099;28;20030;-95
2023/10/27 03:16:49;;;;;;;59.75;17.02;;;;;;;10.78;100.00;98822.31;4928928;28;20512;-96
2023/10/27 03:19:15;;;;;;;54.33;16.70;;;;;;;10.75;100.00;98817.19;4945788;28;20102;-95
2023/10/27 03:21:42;;;;;;;62.00;17.23;;;;;;;10.71;100.00;98820.44;4960340;28;20327;-96
2023/10/27 03:24:07;;;;;;;53.53;15.57;;;;;;;10.72;100.00;98816.69;4940732;28;20034;-96
2023/10/27 03:26:34;;;;;;;60.72;15.93;;;;;;;10.78;100.00;98816.00;4928237;28;20405;-96
2023/10/27 03:29:00;;;;;;;45.72;15.30;;;;;;;10.71;100.00;98818.59;4960218;28;20053;-96
2023/10/27 03:31:26;;;;;;;55.53;15.38;;;;;;;10.74;100.00;98817.38;4943354;28;20517;-96
2023/10/27 03:33:51;;;;;;;63.10;16.23;;;;;;;10.77;100.00;98815.16;4954937;28;20042;-96
2023/10/27 03:36:17;;;;;;;55.17;15.63;;;;;;;10.81;100.00;98818.41;4970945;28;20035;-96
2023/10/27 03:38:42;;;;;;;57.83;15.73;;;;;;;10.77;100.00;98815.16;4959156;28;20516;-96
2023/10/27 03:41:10;;;;;;;55.97;15.50;;;;;;;10.85;100.00;98808.78;4947646;28;20118;-96
2023/10/27 03:43:35;;;;;;;49.17;15.38;;;;;;;10.81;100.00;98812.91;4962470;28;20126;-96
2023/10/27 03:46:01;;;;;;;59.28;15.30;;;;;;;10.85;100.00;98808.78;4966278;28;20097;-96
2023/10/27 03:48:28;;;;;;;62.00;15.55;;;;;;;10.74;100.00;98807.28;4983726;23;20046;-96
2023/10/27 03:50:53;;;;;;;63.92;15.43;;;;;;;10.78;100.00;98805.06;4982184;28;20034;-96
2023/10/27 03:53:19;;;;;;;66.32;16.33;;;;;;;10.78;100.00;98811.38;4996415;28;20042;-94
2023/10/27 03:55:51;;;;;;;52.45;15.57;;;;;;;10.74;100.00;98807.28;4967950;28;20037;-95
2023/10/27 03:58:17;;;;;;;67.35;16.25;;;;;;;10.77;100.00;98812.41;4989204;28;20107;-95
2023/10/27 04:00:43;;;;;;;65.60;16.08;;;;;;;10.75;100.00;98808.97;4992116;28;20481;-96
2023/10/27 04:03:10;;;;;;;66.95;16.65;;;;;;;10.84;100.00;98807.09;4975796;28;20029;-95
2023/10/27 04:05:36;;;;;;;72.20;17.35;;;;;;;10.78;100.00;98805.91;4978587;28;20045;-93
2023/10/27 04:08:04;;;;;;;54.38;16.25;;;;;;;10.78;100.00;98799.56;4968956;28;20030;-90
2023/10/27 04:10:32;;;;;;;52.67;15.55;;;;;;;10.76;100.00;98793.44;4983421;28;20128;-91
2023/10/27 04:12:59;;;;;;;48.60;15.75;;;;;;;10.78;100.00;98792.22;4983598;28;20076;-90
2023/10/27 04:15:27;;;;;;;58.63;16.02;;;;;;;10.73;100.00;98802.00;4985123;28;20125;-90
2023/10/27 04:17:53;;;;;;;46.35;14.25;;;;;;;10.72;100.00;98803.00;4964153;28;20037;-89
2023/10/27 04:20:19;;;;;;;74.63;16.58;;;;;;;10.75;100.00;98795.28;4994708;28;20033;-91
2023/10/27 04:22:46;;;;;;;54.05;16.00;;;;;;;10.65;100.00;98792.75;5009978;28;20096;-90
2023/10/27 04:25:12;;;;;;;46.65;15.27;;;;;;;10.63;100.00;98792.06;5006935;28;20045;-91
2023/10/27 04:27:40;;;;;;;66.47;15.90;;;;;;;10.66;100.00;98794.47;4973561;28;20491;-89
2023/10/27 04:30:07;;;;;;;51.60;16.42;;;;;;;10.71;100.00;98793.94;4981787;28;20499;-91
2023/10/27 04:32:38;;;;;;;61.75;16.00;;;;;;;10.71;100.00;98796.69;4987137;28;20053;-92
2023/10/27 04:35:04;;;;;;;65.78;15.82;;;;;;;10.66;100.00;98789.00;4997528;28;20038;-92
2023/10/27 04:37:33;;;;;;;74.30;17.08;;;;;;;10.60;100.00;98795.16;4961824;28;20060;-93
2023/10/27 04:40:00;;;;;;;54.25;15.73;;;;;;;10.70;100.00;98788.66;5002738;28;20065;-91
2023/10/27 04:42:26;;;;;;;58.85;15.82;;;;;;;10.64;100.00;98790.19;4987014;28;20036;-92
2023/10/27 04:44:51;;;;;;;45.67;15.73;;;;;;;10.70;100.00;98777.69;5001313;28;20475;-88
2023/10/27 04:47:17;;;;;;;51.13;16.10;;;;;;;10.71;100.00;98783.00;5012802;28;20045;-86
2023/10/27 04:49:44;;;;;;;66.80;16.23;;;;;;;10.69;100.00;98793.28;4975638;28;20041;-86
2023/10/27 04:52:09;;;;;;;62.45;17.27;;;;;;;10.71;100.00;98788.47;4980772;28;20061;-85
2023/10/27 04:54:35;;;;;;;58.15;14.45;;;;;;;10.76;100.00;98791.53;4976070;28;20045;-88
2023/10/27 04:57:05;;;;;;;52.03;15.70;;;;;;;10.79;100.00;98791.19;4975085;28;20100;-90
2023/10/27 04:59:33;;;;;;;62.85;16.70;;;;;;;10.73;100.00;98791.03;5018081;28;20472;-90
2023/10/27 05:01:58;;;;;;;55.97;14.43;;;;;;;10.70;100.00;98784.00;5014080;28;20033;-89
2023/10/27 05:04:25;;;;;;;67.95;16.27;;;;;;;10.70;100.00;98775.81;5015600;28;20029;-89
2023/10/27 05:06:51;;;;;;;69.72;16.20;;;;;;;10.66;100.00;98782.66;4998179;28;20100;-89
2023/10/27 05:09:18;;;;;;;54.30;15.65;;;;;;;10.79;100.00;98787.59;4995886;28;20053;-89
2023/10/27 05:11:47;;;;;;;79.10;17.60;;;;;;;10.63;100.00;98786.59;4997586;28;20034;-89
2023/10/27 05:14:13;;;;;;;73.43;17.48;;;;;;;10.61;100.00;98785.91;4983622;28;20037;-89
2023/10/27 05:16:42;;;;;;;65.78;16.02;;;;;;;10.65;100.00;98792.75;4990640;28;20124;-89
2023/10/27 05:19:08;;;;;;;53.78;15.13;;;;;;;10.66;100.00;98774.47;4959974;28;20117;-89
2023/10/27 05:21:33;;;;;;;58.40;15.77;;;;;;;10.63;100.00;98781.13;4993744;28;20065;-89
2023/10/27 05:24:01;;;;;;;64.50;16.02;;;;;;;10.76;100.00;98775.13;4963363;28;20054;-88
2023/10/27 05:26:27;;;;;;;55.67;14.75;;;;;;;10.59;100.00;98773.44;4992004;28;20030;-88
2023/10/27 05:28:52;;;;;;;78.07;15.98;;;;;;;10.66;100.00;98775.31;5007627;28;20089;-88
2023/10/27 05:31:18;;;;;;;53.08;15.05;;;;;;;10.75;100.00;98778.88;4982529;28;20033;-88
2023/10/27 05:33:44;;;;;;;53.13;15.70;;;;;;;10.64;100.00;98773.75;5003094;28;20377;-88
2023/10/27 05:36:11;;;;;;;59.47;14.40;;;;;;;10.68;100.00;98766.91;5019959;28;20551;-88
2023/10/27 05:38:36;;;;;;;65.70;14.95;;;;;;;10.66;100.00;98769.81;4999426;28;20038;-88
2023/10/27 05:41:03;;;;;;;70.78;16.20;;;;;;;10.68;100.00;98769.66;4999007;28;20022;-88
2023/10/27 05:43:28;;;;;;;73.38;16.75;;;;;;;10.64;100.00;98766.41;4961840;28;20030;-88
2023/10/27 05:45:54;;;;;;;70.07;15.27;;;;;;;10.71;100.00;98771.19;4973275;28;20041;-90
2023/10/27 05:48:19;;;;;;;54.30;14.55;;;;;;;10.71;100.00;98771.19;4982587;28;20077;-88
2023/10/27 05:50:45;;;;;;;60.08;15.90;;;;;;;10.75;100.00;98772.56;4979848;28;20046;-88
2023/10/27 05:53:10;;;;;;;55.50;15.30;;;;;;;10.74;100.00;98770.81;4963962;28;20092;-89
2023/10/27 05:55:36;;;;;;;76.75;16.13;;;;;;;10.72;100.00;98770.16;4970019;28;20515;-88
2023/10/27 05:58:01;;;;;;;91.75;17.15;;;;;;;10.74;100.00;98770.81;4976132;28;20112;-88
2023/10/27 06:00:29;;;;;;;60.20;14.98;;;;;;;10.83;100.00;98772.53;4999509;28;20364;-88
2023/10/27 06:02:55;;;;;;;59.63;15.32;;;;;;;10.68;100.00;98766.91;4996293;28;20037;-88
2023/10/27 06:05:21;;;;;;;67.97;16.02;;;;;;;10.74;100.00;98771.72;4985264;28;20168;-88
2023/10/27 06:07:52;;;;;;;65.60;15.52;;;;;;;10.70;100.00;98772.22;4991102;28;20026;-91
2023/10/27 06:10:18;;;;;;;69.90;15.73;;;;;;;10.64;100.00;98773.75;4994809;28;20028;-92
2023/10/27 06:12:44;;;;;;;75.72;16.42;;;;;;;10.64;100.00;98777.38;4970521;28;20034;-89
2023/10/27 06:15:09;;;;;;;55.97;14.63;;;;;;;10.66;100.00;98780.78;4972087;28;20120;-96
2023/10/27 06:17:35;;;;;;;70.65;16.95;;;;;;;10.67;100.00;98776.16;4952885;28;20034;-95
2023/10/27 06:20:04;;;;;;;81.88;16.75;;;;;;;10.69;100.00;98773.25;4991666;28;20555;-93
2023/10/27 06:22:30;;;;;;;75.65;15.88;;;;;;;10.66;100.00;98780.78;4999612;28;20030;-91
2023/10/27 06:24:56;;;;;;;46.00;15.10;;;;;;;10.73;100.00;98780.09;4999696;28;20505;-92
2023/10/27 06:27:21;;;;;;;61.42;16.00;;;;;;;10.71;100.00;98776.66;4997309;28;20026;-92
2023/10/27 06:29:47;;;;;;;48.42;14.82;;;;;;;10.72;100.00;98779.22;4966088;28;20041;-96
2023/10/27 06:32:13;;;;;;;69.40;17.20;;;;;;;10.64;100.00;98784.69;4965259;28;20038;-92
2023/10/27 06:34:38;;;;;;;66.55;16.65;;;;;;;10.65;100.00;98790.00;4976045;28;20117;-92
2023/10/27 06:37:05;;;;;;;59.38;16.13;;;;;;;10.73;100.00;98785.56;4978411;28;20033;-92
2023/10/27 06:39:30;;;;;;;64.97;22.20;;;;;;;10.65;100.00;98790.00;5000346;28;20124;-89
2023/10/27 06:41:56;;;;;;;79.45;18.60;;;;;;;10.63;100.00;98775.66;4983466;28;20049;-89
2023/10/27 06:44:22;;;;;;;85.05;17.90;;;;;;;10.63;100.00;98774.81;4981591;28;20050;-93
2023/10/27 06:46:48;;;;;;;52.22;17.17;;;;;;;10.69;100.00;98778.72;4981182;28;20034;-92
2023/10/27 06:49:14;;;;;;;98.68;18.83;;;;;;;10.68;100.00;98782.50;4967815;28;20050;-94
2023/10/27 06:51:41;;;;;;;64.05;16.52;;;;;;;10.58;100.00;98783.53;4996110;28;20531;-96
2023/10/27 06:54:07;;;;;;;65.47;16.67;;;;;;;10.74;100.00;98785.38;5002876;28;20025;-93
2023/10/27 06:56:32;;;;;;;72.45;17.42;;;;;;;10.72;100.00;98797.53;4989099;28;20033;-92
2023/10/27 06:59:00;;;;;;;53.30;15.73;;;;;;;10.72;100.00;98783.84;4985694;28;20041;-96
2023/10/27 07:01:27;;;;;;;52.90;17.40;;;;;;;10.75;100.00;98789.81;5009611;28;20034;-95
2023/10/27 07:03:53;;;;;;;59.45;18.17;;;;;;;10.79;100.00;98793.94;4978366;28;20021;-96
2023/10/27 07:06:18;;;;;;;68.38;16.95;;;;;;;10.82;100.00;98798.19;4993330;28;20036;-92
2023/10/27 07:08:49;;;;;;;43.08;15.30;;;;;;;10.96;100.00;98796.63;5001410;28;20131;-93
2023/10/27 07:11:17;;;;;;;69.47;18.38;;;;;;;10.81;100.00;98797.34;5015941;28;20105;-94
2023/10/27 07:13:42;;;;;;;53.75;17.30;;;;;;;10.74;100.00;98793.59;4997578;28;20139;-92
2023/10/27 07:16:08;;;;;;;39.00;15.80;;;;;;;10.76;100.00;98810.69;4969261;28;20481;-91
2023/10/27 07:18:34;;;;;;;51.55;16.08;;;;;;;10.88;100.00;98808.44;4991268;28;20036;-93
2023/10/27 07:21:03;;;;;;;49.90;16.67;;;;;;;10.84;100.00;98805.22;5008784;28;20033;-96
2023/10/27 07:23:56;;;;;;;49.03;16.33;;;;;;;10.85;100.00;98792.38;5010359;28;20064;-96
2023/10/27 07:26:22;;;;;;;51.55;16.52;;;;;;;10.86;100.00;98802.31;4987028;28;20049;-94
2023/10/27 07:28:47;;;;;;;56.88;16.33;;;;;;;10.91;100.00;98815.47;4967005;28;20399;-95
2023/10/27 07:31:13;;;;;;;60.17;16.95;;;;;;;10.83;100.00;98802.66;4982789;28;20484;-94
2023/10/27 07:33:39;;;;;;;44.53;16.15;;;;;;;10.75;100.00;98805.41;4968071;28;20084;-93
2023/10/27 07:36:07;;;;;;;103.47;44.72;;;;;;;10.87;100.00;98820.44;4968856;28;20432;-95
2023/10/27 07:38:34;;;;;;;105.85;22.63;;;;;;;10.90;100.00;98813.75;5004313;28;20395;-94
2023/10/27 07:41:00;;;;;;;63.53;17.45;;;;;;;10.92;100.00;98818.03;4999986;28;20036;-96
2023/10/27 07:43:26;;;;;;;40.67;16.50;;;;;;;10.94;100.00;98826.06;4985650;28;20116;-95
2023/10/27 07:45:54;;;;;;;41.47;15.45;;;;;;;10.88;100.00;98816.66;4985983;28;20094;-93
2023/10/27 07:48:20;;;;;;;44.42;16.40;;;;;;;10.93;100.00;98832.56;4990394;28;20054;-96
2023/10/27 07:50:46;;;;;;;59.28;16.33;;;;;;;11.01;100.00;98827.94;5014887;28;20026;-96
2023/10/27 07:53:13;;;;;;;50.03;16.13;;;;;;;11.01;100.00;98822.44;4968599;28;20040;-96
2023/10/27 07:55:40;;;;;;;37.20;14.15;;;;;;;10.99;100.00;98816.28;4975462;28;20096;-96
2023/10/27 07:58:07;;;;;;;39.30;14.75;;;;;;;10.98;100.00;98828.25;5001331;28;20030;-96
2023/10/27 08:00:33;;;;;;;40.13;14.52;;;;;;;11.07;100.00;98823.66;4989736;28;20029;-91
2023/10/27 08:02:58;;;;;;;61.65;15.50;;;;;;;11.00;100.00;98820.75;4978536;28;20121;-90
2023/10/27 08:05:24;;;;;;;34.25;14.82;;;;;;;10.97;100.00;98820.22;4995924;28;20034;-91
2023/10/27 08:07:49;;;;;;;38.05;15.48;;;;;;;10.97;100.00;98825.69;4979918;28;20533;-92
2023/10/27 08:10:16;;;;;;;45.03;16.92;;;;;;;10.98;100.00;98821.94;4971845;28;20121;-92
2023/10/27 08:12:42;;;;;;;36.92;15.35;;;;;;;11.00;100.00;98823.50;4996398;28;20472;-93
2023/10/27 08:15:07;;;;;;;52.92;16.42;;;;;;;10.94;100.00;98832.41;4973989;28;20027;-92
2023/10/27 08:17:33;;;;;;;44.00;15.25;;;;;;;10.94;100.00;98826.06;4979369;28;20029;-92
2023/10/27 08:19:59;;;;;;;40.08;15.55;;;;;;;11.00;100.00;98830.84;5007282;28;20017;-93
2023/10/27 08:22:25;;;;;;;39.95;15.32;;;;;;;11.00;100.00;98833.56;4990418;28;20109;-93
2023/10/27 08:24:50;;;;;;;40.33;15.80;;;;;;;10.98;100.00;98838.38;4978034;28;20038;-92
2023/10/27 08:27:16;;;;;;;35.90;14.80;;;;;;;11.00;100.00;98842.66;4968881;28;20531;-92
2023/10/27 08:29:41;;;;;;;49.50;15.30;;;;;;;11.07;100.00;98837.34;4976691;28;20034;-93
2023/10/27 08:32:07;;;;;;;48.38;16.50;;;;;;;11.03;100.00;98841.44;4966645;28;20034;-92
2023/10/27 08:34:35;;;;;;;39.65;16.20;;;;;;;10.97;100.00;98856.69;4952350;28;20060;-91
2023/10/27 08:37:01;;;;;;;35.45;16.27;;;;;;;10.96;100.00;98856.88;5003522;28;20037;-93
2023/10/27 08:39:27;;;;;;;45.05;16.42;;;;;;;10.94;100.00;98854.31;4965950;28;20198;-91
2023/10/27 08:41:54;;;;;;;36.85;15.55;;;;;;;10.88;100.00;98854.16;4971103;28;20026;-91
2023/10/27 08:44:20;;;;;;;37.92;15.60;;;;;;;10.86;100.00;98862.53;4998166;28;20092;-92
2023/10/27 08:46:47;;;;;;;50.63;16.77;;;;;;;10.91;100.00;98864.75;4956315;28;20102;-91
2023/10/27 08:49:12;;;;;;;46.67;17.08;;;;;;;10.96;100.00;98862.34;5004203;28;20049;-91
2023/10/27 08:51:39;;;;;;;35.55;15.98;;;;;;;10.98;100.00;98860.28;4963249;28;20042;-91
2023/10/27 08:54:05;;;;;;;44.58;15.60;;;;;;;11.03;100.00;98857.88;4998097;28;20029;-94
2023/10/27 08:56:31;;;;;;;38.17;15.55;;;;;;;10.92;100.00;98858.22;5001988;28;20104;-92
2023/10/27 08:58:58;;;;;;;37.47;14.85;;;;;;;11.07;100.00;98853.78;4993195;28;20053;-93
2023/10/27 09:01:25;;;;;;;40.35;14.55;;;;;;;11.10;100.00;98864.38;4966208;28;20121;-93
2023/10/27 09:04:10;;;;;;;31.00;14.30;;;;;;;11.05;100.00;98861.28;4983062;28;20025;-92
2023/10/27 09:06:38;;;;;;;30.05;12.77;;;;;;;11.02;100.00;98858.91;4957860;28;20053;-92
2023/10/27 09:09:09;;;;;;;37.10;14.93;;;;;;;11.08;100.00;98857.34;4980603;28;20037;-92
2023/10/27 09:11:43;;;;;;;33.67;13.55;;;;;;;11.10;100.00;98863.50;4988143;28;20033;-92
2023/10/27 09:14:35;;;;;;;32.20;14.32;;;;;;;11.29;100.00;98862.28;4995192;28;20018;-92
2023/10/27 09:17:05;;;;;;;33.70;15.02;;;;;;;11.28;100.00;98871.50;4985245;28;20034;-91
2023/10/27 09:19:33;;;;;;;31.40;14.25;;;;;;;11.24;100.00;98872.91;5005558;28;20018;-91
2023/10/27 09:21:59;;;;;;;31.33;13.57;;;;;;;11.25;100.00;98880.94;4994916;28;20125;-92
2023/10/27 09:24:26;;;;;;;36.78;13.88;;;;;;;11.22;100.00;98876.66;4984878;28;20053;-88
2023/10/27 09:26:53;;;;;;;36.38;13.90;;;;;;;11.31;100.00;98885.72;4992596;28;20030;-93
2023/10/27 09:29:20;;;;;;;32.25;13.75;;;;;;;11.40;100.00;98881.09;4976150;28;20117;-93
2023/10/27 09:31:47;;;;;;;27.67;12.60;;;;;;;11.38;100.00;98889.47;4982264;28;20030;-89
2023/10/27 09:34:21;;;;;;;31.95;13.40;;;;;;;11.46;100.00;98887.72;4982069;28;20032;-95
2023/10/27 09:36:52;;;;;;;36.22;13.85;;;;;;;11.43;100.00;98896.31;5009130;28;20109;-95
2023/10/27 09:39:20;;;;;;;25.05;12.10;;;;;;;11.34;100.00;98890.84;4994959;28;20057;-94
2023/10/27 09:41:47;;;;;;;28.20;12.20;;;;;;;11.42;100.00;98889.97;4985304;28;20391;-93
2023/10/27 09:44:18;;;;;;;35.95;14.40;;;;;;;11.40;100.00;98887.41;4989273;28;20109;-93
2023/10/27 09:46:54;;;;;;;31.52;12.68;;;;;;;11.51;100.00;98894.41;4975978;28;20045;-94
2023/10/27 09:49:29;;;;;;;27.65;11.68;;;;;;;11.47;100.00;98884.81;4979136;28;20148;-90
2023/10/27 09:52:02;;;;;;;27.35;12.60;;;;;;;11.54;100.00;98880.34;4993580;28;20104;-86
2023/10/27 09:54:33;;;;;;;37.20;13.15;;;;;;;11.63;100.00;98889.41;4998495;28;20026;-91
2023/10/27 09:57:04;;;;;;;30.77;12.13;;;;;;;11.60;100.00;98889.75;4965400;28;20052;-90
2023/10/27 09:59:30;;;;;;;29.27;12.75;;;;;;;11.65;100.00;98900.19;4979101;28;20026;-91
2023/10/27 10:01:57;;;;;;;27.08;12.27;;;;;;;11.63;100.00;98894.03;4998386;28;20028;-88
2023/10/27 10:04:51;;;;;;;20.40;11.30;;;;;;;11.64;100.00;98898.47;4994642;28;20042;-94
2023/10/27 10:07:35;;;;;;;27.15;11.27;;;;;;;11.55;100.00;98897.66;5003231;28;20117;-88
2023/10/27 10:10:35;;;;;;;28.90;11.48;;;;;;;11.58;100.00;98900.88;5000214;28;20480;-91
2023/10/27 10:13:16;;;;;;;20.27;10.15;;;;;;;11.59;100.00;98908.09;5028936;28;20049;-91
2023/10/27 10:15:42;;;;;;;29.23;10.68;;;;;;;11.69;100.00;98909.75;5392492;23;20065;-94
2023/10/27 10:18:29;;;;;;;25.40;11.02;;;;;;;11.66;100.00;98921.94;4982066;28;20075;-95
2023/10/27 10:21:00;;;;;;;22.52;10.85;;;;;;;11.53;100.00;98924.38;4955911;28;20050;-96
2023/10/27 10:23:38;;;;;;;27.05;10.65;;;;;;;11.56;100.00;98927.63;4972337;28;20034;-96
2023/10/27 10:28:46;;;;;;;31.75;12.85;;;;;;;11.49;100.00;98926.59;5777569;23;20049;-94
2023/10/27 10:31:17;;;;;;;22.17;10.85;;;;;;;11.44;100.00;98944.59;4949521;28;20038;-94
2023/10/27 10:33:45;;;;;;;18.60;9.73;;;;;;;11.40;100.00;98933.16;4987063;28;20049;-95
2023/10/27 10:36:23;;;;;;;27.48;10.35;;;;;;;11.62;100.00;98942.50;4972018;28;20074;-95
2023/10/27 10:39:04;;;;;;;31.73;11.73;;;;;;;11.51;100.00;98938.25;4998039;28;20037;-96
2023/10/27 10:41:47;;;;;;;45.95;12.63;;;;;;;11.57;100.00;98932.06;4951114;28;20029;-95
2023/10/27 10:44:16;;;;;;;27.83;12.02;;;;;;;11.51;100.00;98930.03;4973811;28;20034;-95
2023/10/27 10:46:43;;;;;;;37.28;13.57;;;;;;;11.47;100.00;98931.41;4990970;28;20039;-95
2023/10/27 10:49:12;;;;;;;34.17;12.95;;;;;;;11.50;100.00;98927.47;4997379;28;20029;-94
2023/10/27 10:51:37;;;;;;;40.92;14.15;;;;;;;11.45;100.00;98933.47;4996920;28;20032;-95
2023/10/27 10:54:11;;;;;;;38.72;14.02;;;;;;;11.48;100.00;98924.03;4980741;28;20022;-94
2023/10/27 10:56:36;;;;;;;34.90;12.82;;;;;;;11.54;100.00;98923.34;4996861;28;20026;-95
2023/10/27 10:59:03;;;;;;;35.50;13.52;;;;;;;11.62;100.00;98922.47;4996999;28;20030;-94
2023/10/27 11:01:30;;;;;;;44.67;13.45;;;;;;;11.66;100.00;98934.78;4980197;28;20050;-95
2023/10/27 11:03:57;;;;;;;34.88;13.35;;;;;;;11.71;100.00;98926.91;4975964;28;20038;-95
2023/10/27 11:06:27;;;;;;;43.60;14.13;;;;;;;11.72;100.00;98934.06;4988348;28;20038;-95
2023/10/27 11:08:53;;;;;;;35.92;13.25;;;;;;;11.54;100.00;98926.94;4998321;28;20092;-95
2023/10/27 11:11:20;;;;;;;39.97;15.48;;;;;;;11.69;100.00;98921.59;4982730;28;20029;-95
2023/10/27 11:13:51;;;;;;;53.25;16.58;;;;;;;11.71;100.00;98918.69;4996832;28;20030;-95